Walnut Grove, California
Current Conditions -  °F | °C
As of 8:53 AM on Friday 28 Nov 2014 (Local Time) from KSAC Reporting Station
Moderate Fog Moderate Fog  
Wind Chill: 40°   Ceiling: 100
Heat Index: 44°   Visibility: 0.25mi
Dew Point: 42°   Wind: 8mph
Humidity: 93%   Direction: 140°SE
Pressure: 30.01"   Gusts: NA
Location:  38.24°N, 121.51°W
Report Text: KSAC 281653Z 14007KT 1/4SM FG VV001 07/06 A3001 RMK AO2 SLP161 T00670056
Loading
Personal Weather Stations






























Interactive Weather Map New forecast layout! Learn more

10-Day Weather Forecast

Advertisements
Track Severe Weather on mobile